createdAt,value
2017-05-22T00:00:20.848Z,71.80
2017-05-22T00:02:48.799Z,72.70
2017-05-22T00:05:17.109Z,73.50
2017-05-22T00:07:45.464Z,73.00
2017-05-22T00:10:14.149Z,72.70
2017-05-22T00:12:42.462Z,72.60
2017-05-22T00:15:10.495Z,71.90
2017-05-22T00:17:38.843Z,71.80
2017-05-22T00:20:06.784Z,71.20
2017-05-22T00:22:34.773Z,72.30
2017-05-22T00:25:03.082Z,72.80
2017-05-22T00:27:31.021Z,72.90
2017-05-22T00:29:59.383Z,72.90
2017-05-22T00:32:27.701Z,72.70
2017-05-22T00:34:56.024Z,73.20
2017-05-22T00:37:24.761Z,73.20
2017-05-22T00:42:21.648Z,73.10
2017-05-22T00:44:50.781Z,73.30
2017-05-22T00:47:19.118Z,73.90
2017-05-22T00:49:47.073Z,73.40
2017-05-22T00:52:15.452Z,74.80
2017-05-22T00:54:44.510Z,73.80
2017-05-22T00:57:12.464Z,74.40
2017-05-22T00:59:40.465Z,74.30
2017-05-22T01:02:08.797Z,75.10
2017-05-22T01:04:36.749Z,75.00
2017-05-22T01:07:05.473Z,75.10
2017-05-22T01:09:33.791Z,74.30
2017-05-22T01:12:02.110Z,75.30
2017-05-22T01:14:30.524Z,74.60
2017-05-22T01:19:28.116Z,74.60
2017-05-22T01:21:56.484Z,74.40
2017-05-22T01:24:25.558Z,74.80
2017-05-22T01:26:53.897Z,75.30
2017-05-22T01:29:21.913Z,74.90
2017-05-22T01:31:49.892Z,76.20
2017-05-22T01:34:18.227Z,77.40
2017-05-22T01:36:46.212Z,78.00
2017-05-22T01:39:14.525Z,78.50
2017-05-22T01:41:42.469Z,78.10
2017-05-22T01:44:10.475Z,77.90
2017-05-22T01:46:38.441Z,78.80
2017-05-22T01:49:06.750Z,78.70
2017-05-22T01:51:35.128Z,78.80
2017-05-22T01:54:03.076Z,79.00
2017-05-22T01:56:31.385Z,78.40
2017-05-22T01:58:59.785Z,78.00
2017-05-22T02:01:28.473Z,77.30
2017-05-22T02:03:57.529Z,76.80
2017-05-22T02:06:25.549Z,78.30
2017-05-22T02:08:53.893Z,78.10
2017-05-22T02:11:21.853Z,78.40
2017-05-22T02:13:49.869Z,78.70
2017-05-22T02:16:17.889Z,78.30
2017-05-22T02:18:46.205Z,78.10
2017-05-22T02:21:14.209Z,79.00
2017-05-22T02:23:42.154Z,78.40
2017-05-22T02:26:10.481Z,78.40
2017-05-22T02:28:38.474Z,79.00
2017-05-22T02:31:06.797Z,79.60
2017-05-22T02:33:34.740Z,79.40
2017-05-22T02:36:03.105Z,79.30
2017-05-22T02:38:31.421Z,79.10
2017-05-22T02:45:57.233Z,78.30
2017-05-22T02:48:25.570Z,78.90
2017-05-22T02:50:53.596Z,78.70
2017-05-22T02:53:21.582Z,78.30
2017-05-22T02:55:49.946Z,78.50
2017-05-22T02:58:17.946Z,79.10
2017-05-22T03:00:46.256Z,78.20
2017-05-22T03:03:14.214Z,78.10
2017-05-22T03:05:43.089Z,78.40
2017-05-22T03:08:11.407Z,78.70
2017-05-22T03:10:39.719Z,78.80
2017-05-22T03:13:08.812Z,78.30
2017-05-22T03:15:36.757Z,78.20
2017-05-22T03:18:05.073Z,77.80
2017-05-22T03:20:33.437Z,78.00
2017-05-22T03:23:01.757Z,78.00
2017-05-22T03:25:29.705Z,77.60
2017-05-22T03:27:58.114Z,77.70
2017-05-22T03:30:26.103Z,77.60
2017-05-22T03:32:54.452Z,78.80
2017-05-22T03:35:22.834Z,78.40
2017-05-22T03:37:51.549Z,78.20
2017-05-22T03:40:19.861Z,78.70
2017-05-22T03:42:47.857Z,78.20
2017-05-22T03:45:15.805Z,79.00
2017-05-22T03:50:13.065Z,79.30
2017-05-22T03:55:09.516Z,78.90
2017-05-22T03:57:37.877Z,79.40
2017-05-22T04:00:06.933Z,78.60
2017-05-22T04:02:35.246Z,79.00
2017-05-22T04:05:03.609Z,78.80
2017-05-22T04:07:31.568Z,79.00
2017-05-22T04:09:59.890Z,79.40
2017-05-22T04:14:57.191Z,79.20
2017-05-22T04:17:25.533Z,79.90
2017-05-22T04:19:53.557Z,79.40
2017-05-22T04:22:21.507Z,79.60
2017-05-22T04:24:49.828Z,79.50
2017-05-22T04:27:17.821Z,79.30
2017-05-22T04:29:45.778Z,78.50
2017-05-22T04:32:14.096Z,78.00
2017-05-22T04:34:42.109Z,78.90
2017-05-22T04:37:10.445Z,79.10
2017-05-22T04:39:38.772Z,79.40
2017-05-22T04:42:07.129Z,79.90
2017-05-22T04:44:35.817Z,80.20
2017-05-22T04:49:33.821Z,80.80
2017-05-22T04:52:02.133Z,79.90
2017-05-22T04:54:30.076Z,79.90
2017-05-22T04:56:58.437Z,80.50
2017-05-22T04:59:27.174Z,80.10
2017-05-22T05:01:55.861Z,81.60
2017-05-22T05:04:24.260Z,81.50
2017-05-22T05:11:56.696Z,82.00
2017-05-22T05:14:25.018Z,81.30
2017-05-22T05:16:53.353Z,81.30
2017-05-22T05:19:22.471Z,81.40
2017-05-22T05:21:50.427Z,80.90
2017-05-22T05:24:18.741Z,81.50
2017-05-22T05:26:46.749Z,81.30
2017-05-22T05:29:15.429Z,81.60
2017-05-22T05:31:43.740Z,81.80
2017-05-22T05:34:11.732Z,81.30
2017-05-22T05:36:40.063Z,80.60
2017-05-22T05:39:09.093Z,81.20
2017-05-22T05:46:35.254Z,80.70
2017-05-22T05:49:03.637Z,80.90
2017-05-22T05:51:31.585Z,80.10
2017-05-22T05:53:59.898Z,81.00
2017-05-22T05:56:27.900Z,81.20
2017-05-22T05:58:56.225Z,80.90
2017-05-22T06:01:24.180Z,81.20
2017-05-22T06:03:52.203Z,80.90
2017-05-22T06:06:20.913Z,80.30
2017-05-22T06:08:49.225Z,77.40
2017-05-22T06:11:17.222Z,78.80
2017-05-22T06:13:45.532Z,76.70
2017-05-22T06:16:13.477Z,76.00
2017-05-22T06:18:41.845Z,75.10
2017-05-22T06:21:10.173Z,72.30
2017-05-22T06:23:39.237Z,72.70
2017-05-22T06:26:07.273Z,70.80
2017-05-22T06:28:35.217Z,71.00
2017-05-22T06:31:03.532Z,72.70
2017-05-22T06:33:31.549Z,68.70
2017-05-22T06:35:59.489Z,69.70
2017-05-22T06:38:27.796Z,70.90
2017-05-22T06:40:56.181Z,68.30
2017-05-22T06:43:24.137Z,68.10
2017-05-22T06:45:52.475Z,67.40
2017-05-22T06:53:19.036Z,65.20
2017-05-22T06:55:47.396Z,61.00
2017-05-22T06:58:15.705Z,63.40
2017-05-22T07:00:44.025Z,58.70
2017-05-22T07:03:12.785Z,59.00
2017-05-22T07:05:41.112Z,56.50
2017-05-22T07:08:09.086Z,57.80
2017-05-22T07:10:37.084Z,57.20
2017-05-22T07:13:05.404Z,54.50
2017-05-22T07:15:33.344Z,55.70
2017-05-22T07:18:01.716Z,54.40
2017-05-22T07:20:29.652Z,52.30
2017-05-22T07:22:57.965Z,53.60
2017-05-22T07:25:26.341Z,55.20
2017-05-22T07:27:54.298Z,55.30
2017-05-22T07:30:22.264Z,54.40
2017-05-22T07:32:51.030Z,55.30
2017-05-22T07:35:18.986Z,53.50
2017-05-22T07:37:47.298Z,52.60
2017-05-22T07:40:15.659Z,53.00
2017-05-22T07:42:43.610Z,54.00
2017-05-22T07:45:11.936Z,53.90
2017-05-22T07:47:41.048Z,53.40
2017-05-22T07:50:09.009Z,53.70
2017-05-22T07:52:36.960Z,52.60
2017-05-22T07:55:05.321Z,52.70
2017-05-22T07:57:33.269Z,53.80
2017-05-22T08:00:01.593Z,52.40
2017-05-22T08:02:29.602Z,52.00
2017-05-22T08:04:57.922Z,50.70
2017-05-22T08:07:25.884Z,49.20
2017-05-22T08:09:54.258Z,51.30
2017-05-22T08:12:22.958Z,50.70
2017-05-22T08:14:50.925Z,49.00
2017-05-22T08:17:18.957Z,49.70
2017-05-22T08:19:47.278Z,51.00
2017-05-22T08:22:15.593Z,49.90
2017-05-22T08:24:43.588Z,48.50
2017-05-22T08:27:11.910Z,50.30
2017-05-22T08:29:40.620Z,49.60
2017-05-22T08:32:08.993Z,48.30
2017-05-22T08:34:36.937Z,47.90
2017-05-22T08:37:04.902Z,50.10
2017-05-22T08:39:33.270Z,48.80
2017-05-22T08:42:01.214Z,49.80
2017-05-22T08:44:29.526Z,49.50
2017-05-22T08:46:57.901Z,44.30
2017-05-22T08:49:25.858Z,43.20
2017-05-22T08:51:54.181Z,45.00
2017-05-22T08:54:22.566Z,44.50
2017-05-22T08:56:50.504Z,44.50
2017-05-22T08:59:18.826Z,44.70
2017-05-22T09:01:47.181Z,44.70
2017-05-22T09:04:15.500Z,44.90
2017-05-22T09:06:43.456Z,44.40
2017-05-22T09:09:12.552Z,40.60
2017-05-22T09:11:40.512Z,45.70
2017-05-22T09:14:08.877Z,44.60
2017-05-22T09:16:36.856Z,41.90
2017-05-22T09:19:04.801Z,40.90
2017-05-22T09:21:33.104Z,39.30
2017-05-22T09:24:01.139Z,43.30
2017-05-22T09:26:29.457Z,41.70
2017-05-22T09:28:57.772Z,38.30
2017-05-22T09:31:26.158Z,37.50
2017-05-22T09:33:54.121Z,37.10
2017-05-22T09:36:22.449Z,38.50
2017-05-22T09:38:50.840Z,40.90
2017-05-22T09:41:18.782Z,39.20
2017-05-22T09:46:16.034Z,37.60
2017-05-22T09:48:44.341Z,44.80
2017-05-22T09:51:12.284Z,38.90
2017-05-22T09:53:40.650Z,40.40
2017-05-22T09:56:08.618Z,40.80
2017-05-22T09:58:36.946Z,36.60
2017-05-22T10:01:04.935Z,38.10
2017-05-22T10:03:32.873Z,39.10
2017-05-22T10:06:01.185Z,39.10
2017-05-22T10:08:29.179Z,38.80
2017-05-22T10:10:57.488Z,35.00
2017-05-22T10:13:25.836Z,35.90
2017-05-22T10:15:54.216Z,36.10
2017-05-22T10:18:22.181Z,38.50
2017-05-22T10:20:50.501Z,36.80
2017-05-22T10:23:18.912Z,36.10
2017-05-22T10:25:46.845Z,35.20
2017-05-22T10:28:15.153Z,36.40
2017-05-22T10:30:43.542Z,36.30
2017-05-22T10:33:12.216Z,35.00
2017-05-22T10:35:40.547Z,38.30
2017-05-22T10:38:08.548Z,35.40
2017-05-22T10:40:36.873Z,35.40
2017-05-22T10:43:04.821Z,35.70
2017-05-22T10:45:32.830Z,35.30
2017-05-22T10:48:01.149Z,35.70
2017-05-22T10:50:29.084Z,35.50
2017-05-22T10:52:57.440Z,35.60
2017-05-22T10:55:25.764Z,35.20
2017-05-22T10:57:54.086Z,34.60
2017-05-22T11:00:22.092Z,36.10
2017-05-22T11:02:50.412Z,34.20
2017-05-22T11:05:18.732Z,35.70
2017-05-22T11:07:47.855Z,33.10
2017-05-22T11:10:15.799Z,33.50
2017-05-22T11:12:44.113Z,33.80
2017-05-22T11:15:12.129Z,35.30
2017-05-22T11:17:40.446Z,32.50
2017-05-22T11:20:08.392Z,32.10
2017-05-22T11:22:36.780Z,33.00
2017-05-22T11:25:04.720Z,34.50
2017-05-22T11:27:32.652Z,31.70
2017-05-22T11:30:01.005Z,32.20
2017-05-22T11:32:28.945Z,35.40
2017-05-22T11:34:57.257Z,35.10
2017-05-22T11:37:25.629Z,33.30
2017-05-22T11:39:54.321Z,32.10
2017-05-22T11:42:22.285Z,31.50
2017-05-22T11:44:50.341Z,29.50
2017-05-22T11:47:19.405Z,32.40
2017-05-22T11:49:47.721Z,28.50
2017-05-22T11:52:16.100Z,29.30
2017-05-22T11:54:44.049Z,31.90
2017-05-22T11:57:11.992Z,30.00
2017-05-22T11:59:40.370Z,33.00
2017-05-22T12:02:08.694Z,33.90
2017-05-22T12:04:37.013Z,32.60
2017-05-22T12:07:05.373Z,32.80
2017-05-22T12:12:02.953Z,30.60
2017-05-22T12:14:30.961Z,32.60
2017-05-22T12:16:59.272Z,33.00
2017-05-22T12:19:27.581Z,31.70
2017-05-22T12:26:54.186Z,31.10
2017-05-22T12:29:23.430Z,30.50
2017-05-22T12:31:52.521Z,32.00
2017-05-22T12:34:21.600Z,32.40
2017-05-22T12:36:49.961Z,32.10
2017-05-22T12:39:17.905Z,31.80
2017-05-22T12:41:46.220Z,32.90
2017-05-22T12:44:14.206Z,32.90
2017-05-22T12:46:42.153Z,33.10
2017-05-22T12:49:10.480Z,35.30
2017-05-22T12:51:38.469Z,33.30
2017-05-22T12:54:06.781Z,34.00
2017-05-22T12:56:35.088Z,36.20
2017-05-22T12:59:03.078Z,35.30
2017-05-22T13:01:31.384Z,33.70
2017-05-22T13:03:59.696Z,35.20
2017-05-22T13:06:28.060Z,36.90
2017-05-22T13:08:56.029Z,35.20
2017-05-22T13:13:53.685Z,31.50
2017-05-22T13:16:21.644Z,31.20
2017-05-22T13:18:49.584Z,30.50
2017-05-22T13:21:17.973Z,35.00
2017-05-22T13:23:45.917Z,32.60
2017-05-22T13:26:14.224Z,32.30
2017-05-22T13:28:42.217Z,32.60
2017-05-22T13:31:10.170Z,33.60
2017-05-22T13:33:38.485Z,34.60
2017-05-22T13:36:06.507Z,31.90
2017-05-22T13:38:34.828Z,33.10
2017-05-22T13:46:01.713Z,32.70
2017-05-22T13:48:30.024Z,35.00
2017-05-22T13:50:58.012Z,32.50
2017-05-22T13:53:26.338Z,33.60
2017-05-22T13:55:55.409Z,34.30
2017-05-22T13:58:23.781Z,33.30
2017-05-22T14:00:51.750Z,34.60
2017-05-22T14:03:19.712Z,32.10
2017-05-22T14:05:48.105Z,34.30
2017-05-22T14:08:16.049Z,32.00
2017-05-22T14:10:44.361Z,31.50
2017-05-22T14:13:12.369Z,32.10
2017-05-22T14:15:40.327Z,32.70
2017-05-22T14:18:08.646Z,35.80
2017-05-22T14:20:37.369Z,34.30
2017-05-22T14:23:05.697Z,36.10
2017-05-22T14:25:34.016Z,33.80
2017-05-22T14:28:02.004Z,34.50
2017-05-22T14:30:29.971Z,33.80
2017-05-22T14:32:57.917Z,36.40
2017-05-22T14:35:26.403Z,34.90
2017-05-22T14:37:54.399Z,33.80
2017-05-22T14:40:22.733Z,34.70
2017-05-22T14:42:51.873Z,37.00
2017-05-22T14:45:19.824Z,35.80
2017-05-22T14:47:47.762Z,36.40
2017-05-22T14:50:15.748Z,37.30
2017-05-22T14:52:44.061Z,36.80
2017-05-22T14:55:12.021Z,36.50
2017-05-22T14:57:42.402Z,37.20
2017-05-22T15:00:10.735Z,36.50
2017-05-22T15:02:38.684Z,37.20
2017-05-22T15:05:07.049Z,38.30
2017-05-22T15:07:35.364Z,35.30
2017-05-22T15:10:03.673Z,37.70
2017-05-22T15:12:31.674Z,37.40
2017-05-22T15:15:02.241Z,38.00
2017-05-22T15:17:30.185Z,36.40
2017-05-22T15:19:58.585Z,35.60
2017-05-22T15:22:27.370Z,39.00
2017-05-22T15:24:55.364Z,37.30
2017-05-22T15:27:23.738Z,37.70
2017-05-22T15:29:51.707Z,36.20
2017-05-22T15:32:19.661Z,37.50
2017-05-22T15:34:48.013Z,36.50
2017-05-22T15:37:15.948Z,35.50
2017-05-22T15:39:44.277Z,36.50
2017-05-22T15:42:12.657Z,37.50
2017-05-22T15:49:39.197Z,35.10
2017-05-22T15:52:07.141Z,36.90
2017-05-22T15:54:35.481Z,35.50
2017-05-22T15:57:03.880Z,37.60
2017-05-22T15:59:32.194Z,34.80
2017-05-22T16:02:01.253Z,36.20
2017-05-22T16:06:59.261Z,36.70
2017-05-22T16:09:27.573Z,35.70
2017-05-22T16:11:55.581Z,37.20
2017-05-22T16:14:23.657Z,35.20
2017-05-22T16:16:51.635Z,35.50
2017-05-22T16:19:20.169Z,37.20
2017-05-22T16:21:48.485Z,36.20
2017-05-22T16:24:16.437Z,35.70
2017-05-22T16:26:44.815Z,35.60
2017-05-22T16:29:12.772Z,36.40
2017-05-22T16:31:41.109Z,36.00
2017-05-22T16:34:09.481Z,35.20
2017-05-22T16:36:37.420Z,34.70
2017-05-22T16:39:05.748Z,36.90
2017-05-22T16:44:02.796Z,34.00
2017-05-22T16:49:00.073Z,37.10
2017-05-22T16:51:29.133Z,35.90
2017-05-22T16:53:57.460Z,37.20
2017-05-22T16:56:25.461Z,36.10
2017-05-22T16:58:53.805Z,37.30
2017-05-22T17:01:21.756Z,38.30
2017-05-22T17:03:50.532Z,36.00
2017-05-22T17:06:18.480Z,37.60
2017-05-22T17:13:45.032Z,37.30
2017-05-22T17:16:13.383Z,37.20
2017-05-22T17:18:41.392Z,37.10
2017-05-22T17:23:38.611Z,37.00
2017-05-22T17:26:07.001Z,37.40
2017-05-22T17:28:35.320Z,36.90
2017-05-22T17:31:03.633Z,38.20
2017-05-22T17:33:32.009Z,37.00
2017-05-22T17:36:00.336Z,37.50
2017-05-22T17:40:57.723Z,37.80
2017-05-22T17:43:25.710Z,38.50
2017-05-22T17:45:54.067Z,38.20
2017-05-22T17:48:23.318Z,39.30
2017-05-22T17:50:52.408Z,39.70
2017-05-22T17:53:20.757Z,40.80
2017-05-22T17:58:18.424Z,39.30
2017-05-22T18:00:49.783Z,40.30
2017-05-22T18:05:46.703Z,39.40
2017-05-22T18:08:14.652Z,39.40
2017-05-22T18:10:43.410Z,38.70
2017-05-22T18:15:41.061Z,39.00
2017-05-22T18:18:09.062Z,40.00
2017-05-22T18:20:37.379Z,41.00
2017-05-22T18:23:05.329Z,41.70
2017-05-22T18:25:34.068Z,42.80
2017-05-22T18:28:02.022Z,43.80
2017-05-22T18:30:29.976Z,46.60
2017-05-22T18:32:58.779Z,46.90
2017-05-22T18:35:26.750Z,47.40
2017-05-22T18:37:55.092Z,48.70
2017-05-22T18:40:23.115Z,50.30
2017-05-22T18:42:52.198Z,49.80
2017-05-22T18:45:20.593Z,51.20
2017-05-22T18:47:48.592Z,50.20
2017-05-22T18:50:16.536Z,49.90
2017-05-22T18:52:45.249Z,46.50
2017-05-22T18:55:13.621Z,49.30
2017-05-22T18:57:41.933Z,50.30
2017-05-22T19:00:10.993Z,50.90
2017-05-22T19:02:39.385Z,51.90
2017-05-22T19:05:07.337Z,51.80
2017-05-22T19:07:36.408Z,48.90
2017-05-22T19:10:04.897Z,52.40
2017-05-22T19:12:33.969Z,52.70
2017-05-22T19:15:02.285Z,54.00
2017-05-22T19:17:30.671Z,52.20
2017-05-22T19:19:58.637Z,52.50
2017-05-22T19:22:26.989Z,48.00
2017-05-22T19:24:55.383Z,48.40
2017-05-22T19:27:23.348Z,53.10
2017-05-22T19:29:52.456Z,53.70
2017-05-22T19:32:20.471Z,51.40
2017-05-22T19:34:48.825Z,50.10
2017-05-22T19:39:46.837Z,47.70
2017-05-22T19:42:14.792Z,51.10
2017-05-22T19:44:43.119Z,46.30
2017-05-22T19:47:11.120Z,45.30
2017-05-22T19:49:39.437Z,44.60
2017-05-22T19:52:07.771Z,45.10
2017-05-22T19:54:36.150Z,44.60
2017-05-22T19:57:04.094Z,45.10
2017-05-22T19:59:32.780Z,44.50
2017-05-22T20:02:00.787Z,45.10
2017-05-22T20:04:28.750Z,45.00
2017-05-22T20:09:26.116Z,44.80
2017-05-22T20:16:53.105Z,45.20
2017-05-22T20:21:50.734Z,45.80
2017-05-22T20:24:18.761Z,46.50
2017-05-22T20:26:47.081Z,46.80
2017-05-22T20:29:15.036Z,46.70
2017-05-22T20:31:43.400Z,46.70
2017-05-22T20:34:11.725Z,46.30
2017-05-22T20:36:39.672Z,47.10
2017-05-22T20:39:08.035Z,46.80
2017-05-22T20:46:33.842Z,46.60
2017-05-22T20:49:01.789Z,47.00
2017-05-22T20:51:30.101Z,46.70
2017-05-22T20:53:58.090Z,47.10
2017-05-22T21:01:24.677Z,47.50
2017-05-22T21:03:52.664Z,46.90
2017-05-22T21:06:20.615Z,47.00
2017-05-22T21:08:49.001Z,47.20
2017-05-22T21:11:16.937Z,47.40
2017-05-22T21:13:45.257Z,46.90
2017-05-22T21:16:13.609Z,48.10
2017-05-22T21:18:41.948Z,47.20
2017-05-22T21:21:09.924Z,47.50
2017-05-22T21:23:38.385Z,48.00
2017-05-22T21:26:06.333Z,48.10
2017-05-22T21:28:34.648Z,47.80
2017-05-22T21:31:04.073Z,47.30
2017-05-22T21:33:32.014Z,47.50
2017-05-22T21:35:59.964Z,47.70
2017-05-22T21:38:28.356Z,48.10
2017-05-22T21:40:56.703Z,48.50
2017-05-22T21:43:25.054Z,48.80
2017-05-22T21:45:53.486Z,48.50
2017-05-22T21:48:22.574Z,47.90
2017-05-22T21:50:50.905Z,48.60
2017-05-22T21:53:18.909Z,48.20
2017-05-22T21:55:47.225Z,48.20
2017-05-22T21:58:15.542Z,48.70
2017-05-22T22:00:43.956Z,48.40
2017-05-22T22:03:12.281Z,48.50
2017-05-22T22:05:40.238Z,48.30
2017-05-22T22:08:09.381Z,49.10
2017-05-22T22:10:37.709Z,48.50
2017-05-22T22:13:05.664Z,48.80
2017-05-22T22:15:34.032Z,48.80
2017-05-22T22:18:01.984Z,48.20
2017-05-22T22:20:29.929Z,48.50
2017-05-22T22:22:58.665Z,48.80
2017-05-22T22:25:26.989Z,49.60
2017-05-22T22:27:55.335Z,49.80
2017-05-22T22:30:23.741Z,49.80
2017-05-22T22:32:52.817Z,50.10
2017-05-22T22:35:20.790Z,51.10
2017-05-22T22:37:49.165Z,51.10
2017-05-22T22:40:17.494Z,51.40
2017-05-22T22:42:45.815Z,52.20
2017-05-22T22:45:13.832Z,52.30
2017-05-22T22:47:42.162Z,52.20
2017-05-22T22:50:10.502Z,52.60
2017-05-22T22:52:38.523Z,53.00
2017-05-22T22:55:07.581Z,53.00
2017-05-22T22:57:35.897Z,53.00
2017-05-22T23:00:03.937Z,53.10
2017-05-22T23:02:31.888Z,52.40
2017-05-22T23:05:00.202Z,52.80
2017-05-22T23:07:28.234Z,53.20
2017-05-22T23:09:56.329Z,53.30
2017-05-22T23:12:24.298Z,53.20
2017-05-22T23:14:52.719Z,53.30
2017-05-22T23:17:20.687Z,53.40
2017-05-22T23:19:49.033Z,53.70
2017-05-22T23:22:17.423Z,53.70
2017-05-22T23:24:45.737Z,53.90
2017-05-22T23:27:14.061Z,54.50
2017-05-22T23:29:42.092Z,53.80
2017-05-22T23:32:10.413Z,53.90
2017-05-22T23:34:38.377Z,54.70
2017-05-22T23:37:06.765Z,54.80
2017-05-22T23:39:35.827Z,55.00
2017-05-22T23:42:03.777Z,55.20
2017-05-22T23:44:31.797Z,55.30
2017-05-22T23:46:59.748Z,55.40
2017-05-22T23:49:28.073Z,54.70
2017-05-22T23:51:56.910Z,55.20
2017-05-22T23:54:25.267Z,55.40
2017-05-22T23:56:53.629Z,55.40
2017-05-22T23:59:22.811Z,55.30
